sensor_id;sensor_type;location;lat;lon;timestamp;P1;durP1;ratioP1;P2;durP2;ratioP2
76837;SDS011;65797;47.352;8.164;2022-12-20T00:00:02;9.27;;;6.60;;
76837;SDS011;65797;47.352;8.164;2022-12-20T00:02:29;7.77;;;6.07;;
76837;SDS011;65797;47.352;8.164;2022-12-20T00:04:55;12.23;;;6.70;;
76837;SDS011;65797;47.352;8.164;2022-12-20T00:07:20;12.33;;;7.20;;
76837;SDS011;65797;47.352;8.164;2022-12-20T00:09:46;14.03;;;6.57;;
76837;SDS011;65797;47.352;8.164;2022-12-20T00:12:12;11.20;;;6.10;;
76837;SDS011;65797;47.352;8.164;2022-12-20T00:14:37;12.63;;;7.23;;
76837;SDS011;65797;47.352;8.164;2022-12-20T00:17:03;11.70;;;6.83;;
76837;SDS011;65797;47.352;8.164;2022-12-20T00:19:28;11.13;;;6.30;;
76837;SDS011;65797;47.352;8.164;2022-12-20T00:21:54;10.03;;;6.53;;
76837;SDS011;65797;47.352;8.164;2022-12-20T00:24:20;9.37;;;7.03;;
76837;SDS011;65797;47.352;8.164;2022-12-20T00:26:46;15.80;;;8.30;;
76837;SDS011;65797;47.352;8.164;2022-12-20T00:29:11;13.33;;;7.27;;
76837;SDS011;65797;47.352;8.164;2022-12-20T00:31:37;13.03;;;7.50;;
76837;SDS011;65797;47.352;8.164;2022-12-20T00:34:03;12.60;;;7.70;;
76837;SDS011;65797;47.352;8.164;2022-12-20T00:36:30;10.97;;;6.57;;
76837;SDS011;65797;47.352;8.164;2022-12-20T00:38:57;17.27;;;8.13;;
76837;SDS011;65797;47.352;8.164;2022-12-20T00:41:25;10.37;;;7.23;;
76837;SDS011;65797;47.352;8.164;2022-12-20T00:43:53;8.53;;;5.87;;
76837;SDS011;65797;47.352;8.164;2022-12-20T00:46:19;10.63;;;6.10;;
76837;SDS011;65797;47.352;8.164;2022-12-20T00:48:47;8.30;;;5.80;;
76837;SDS011;65797;47.352;8.164;2022-12-20T00:51:17;11.70;;;7.00;;
76837;SDS011;65797;47.352;8.164;2022-12-20T00:53:44;15.83;;;7.90;;
76837;SDS011;65797;47.352;8.164;2022-12-20T00:56:10;13.10;;;7.73;;
76837;SDS011;65797;47.352;8.164;2022-12-20T00:58:37;15.13;;;7.47;;
76837;SDS011;65797;47.352;8.164;2022-12-20T01:01:05;12.60;;;6.37;;
76837;SDS011;65797;47.352;8.164;2022-12-20T01:03:38;8.77;;;6.17;;
76837;SDS011;65797;47.352;8.164;2022-12-20T01:06:03;10.93;;;6.27;;
76837;SDS011;65797;47.352;8.164;2022-12-20T01:08:30;11.73;;;6.90;;
76837;SDS011;65797;47.352;8.164;2022-12-20T01:11:10;11.00;;;6.60;;
76837;SDS011;65797;47.352;8.164;2022-12-20T01:13:37;11.53;;;7.30;;
76837;SDS011;65797;47.352;8.164;2022-12-20T01:16:10;12.23;;;7.53;;
76837;SDS011;65797;47.352;8.164;2022-12-20T01:18:40;10.93;;;6.80;;
76837;SDS011;65797;47.352;8.164;2022-12-20T01:21:07;12.40;;;7.87;;
76837;SDS011;65797;47.352;8.164;2022-12-20T01:23:34;12.93;;;6.90;;
76837;SDS011;65797;47.352;8.164;2022-12-20T01:26:00;9.23;;;6.73;;
76837;SDS011;65797;47.352;8.164;2022-12-20T01:28:29;14.37;;;6.73;;
76837;SDS011;65797;47.352;8.164;2022-12-20T01:30:55;12.70;;;7.30;;
76837;SDS011;65797;47.352;8.164;2022-12-20T01:33:21;15.70;;;7.93;;
76837;SDS011;65797;47.352;8.164;2022-12-20T01:35:54;11.97;;;6.73;;
76837;SDS011;65797;47.352;8.164;2022-12-20T01:38:20;11.40;;;6.67;;
76837;SDS011;65797;47.352;8.164;2022-12-20T01:40:46;10.67;;;6.10;;
76837;SDS011;65797;47.352;8.164;2022-12-20T01:43:12;12.53;;;6.83;;
76837;SDS011;65797;47.352;8.164;2022-12-20T01:45:39;12.90;;;6.10;;
76837;SDS011;65797;47.352;8.164;2022-12-20T01:48:05;14.13;;;6.13;;
76837;SDS011;65797;47.352;8.164;2022-12-20T01:50:32;12.73;;;6.40;;
76837;SDS011;65797;47.352;8.164;2022-12-20T01:52:58;11.20;;;6.27;;
76837;SDS011;65797;47.352;8.164;2022-12-20T01:55:27;12.40;;;7.20;;
76837;SDS011;65797;47.352;8.164;2022-12-20T01:58:01;13.30;;;6.70;;
76837;SDS011;65797;47.352;8.164;2022-12-20T02:00:31;11.13;;;6.70;;
76837;SDS011;65797;47.352;8.164;2022-12-20T02:03:00;9.60;;;6.17;;
76837;SDS011;65797;47.352;8.164;2022-12-20T02:05:34;11.50;;;7.17;;
76837;SDS011;65797;47.352;8.164;2022-12-20T02:08:00;9.80;;;6.60;;
76837;SDS011;65797;47.352;8.164;2022-12-20T02:10:28;11.43;;;6.80;;
76837;SDS011;65797;47.352;8.164;2022-12-20T02:13:40;10.60;;;6.50;;
76837;SDS011;65797;47.352;8.164;2022-12-20T02:16:16;10.03;;;6.30;;
76837;SDS011;65797;47.352;8.164;2022-12-20T02:18:54;10.40;;;6.23;;
76837;SDS011;65797;47.352;8.164;2022-12-20T02:21:38;12.17;;;6.47;;
76837;SDS011;65797;47.352;8.164;2022-12-20T02:29:32;8.63;;;5.33;;
76837;SDS011;65797;47.352;8.164;2022-12-20T02:32:22;9.50;;;6.57;;
76837;SDS011;65797;47.352;8.164;2022-12-20T02:34:52;9.70;;;5.70;;
76837;SDS011;65797;47.352;8.164;2022-12-20T02:37:19;10.00;;;6.47;;
76837;SDS011;65797;47.352;8.164;2022-12-20T02:39:45;11.17;;;5.80;;
76837;SDS011;65797;47.352;8.164;2022-12-20T02:42:12;8.77;;;6.40;;
76837;SDS011;65797;47.352;8.164;2022-12-20T02:44:40;14.53;;;6.47;;
76837;SDS011;65797;47.352;8.164;2022-12-20T02:47:30;8.20;;;5.57;;
76837;SDS011;65797;47.352;8.164;2022-12-20T02:50:00;11.10;;;5.30;;
76837;SDS011;65797;47.352;8.164;2022-12-20T02:52:28;7.30;;;5.57;;
76837;SDS011;65797;47.352;8.164;2022-12-20T02:54:55;10.87;;;6.07;;
76837;SDS011;65797;47.352;8.164;2022-12-20T02:59:59;7.30;;;5.27;;
76837;SDS011;65797;47.352;8.164;2022-12-20T03:02:32;12.30;;;7.33;;
76837;SDS011;65797;47.352;8.164;2022-12-20T03:05:19;8.70;;;5.70;;
76837;SDS011;65797;47.352;8.164;2022-12-20T03:07:47;9.40;;;6.00;;
76837;SDS011;65797;47.352;8.164;2022-12-20T03:10:12;9.53;;;5.87;;
76837;SDS011;65797;47.352;8.164;2022-12-20T03:12:38;10.40;;;5.73;;
76837;SDS011;65797;47.352;8.164;2022-12-20T03:15:04;10.07;;;5.40;;
76837;SDS011;65797;47.352;8.164;2022-12-20T03:17:30;10.40;;;6.50;;
76837;SDS011;65797;47.352;8.164;2022-12-20T03:19:56;10.20;;;5.90;;
76837;SDS011;65797;47.352;8.164;2022-12-20T03:22:21;12.90;;;6.90;;
76837;SDS011;65797;47.352;8.164;2022-12-20T03:24:47;10.40;;;5.67;;
76837;SDS011;65797;47.352;8.164;2022-12-20T03:27:13;9.93;;;6.30;;
76837;SDS011;65797;47.352;8.164;2022-12-20T03:29:39;8.10;;;5.90;;
76837;SDS011;65797;47.352;8.164;2022-12-20T03:32:05;10.70;;;6.00;;
76837;SDS011;65797;47.352;8.164;2022-12-20T03:34:30;10.60;;;5.83;;
76837;SDS011;65797;47.352;8.164;2022-12-20T03:36:56;10.00;;;6.10;;
76837;SDS011;65797;47.352;8.164;2022-12-20T03:39:22;8.30;;;6.10;;
76837;SDS011;65797;47.352;8.164;2022-12-20T03:41:47;10.80;;;6.00;;
76837;SDS011;65797;47.352;8.164;2022-12-20T03:44:13;8.50;;;5.63;;
76837;SDS011;65797;47.352;8.164;2022-12-20T03:46:39;7.83;;;5.27;;
76837;SDS011;65797;47.352;8.164;2022-12-20T03:49:05;10.53;;;6.60;;
76837;SDS011;65797;47.352;8.164;2022-12-20T03:51:30;6.50;;;5.30;;
76837;SDS011;65797;47.352;8.164;2022-12-20T03:53:56;9.20;;;5.67;;
76837;SDS011;65797;47.352;8.164;2022-12-20T03:56:22;9.13;;;5.87;;
76837;SDS011;65797;47.352;8.164;2022-12-20T03:58:47;9.77;;;6.73;;
76837;SDS011;65797;47.352;8.164;2022-12-20T04:01:20;7.17;;;5.10;;
76837;SDS011;65797;47.352;8.164;2022-12-20T04:03:51;8.67;;;5.40;;
76837;SDS011;65797;47.352;8.164;2022-12-20T04:06:17;10.40;;;6.40;;
76837;SDS011;65797;47.352;8.164;2022-12-20T04:08:44;6.20;;;5.00;;
76837;SDS011;65797;47.352;8.164;2022-12-20T04:11:10;11.43;;;5.13;;
76837;SDS011;65797;47.352;8.164;2022-12-20T04:13:45;11.10;;;5.80;;
76837;SDS011;65797;47.352;8.164;2022-12-20T04:16:13;9.53;;;5.47;;
76837;SDS011;65797;47.352;8.164;2022-12-20T04:18:40;8.53;;;5.80;;
76837;SDS011;65797;47.352;8.164;2022-12-20T04:21:06;9.20;;;5.57;;
76837;SDS011;65797;47.352;8.164;2022-12-20T04:23:33;9.43;;;5.70;;
76837;SDS011;65797;47.352;8.164;2022-12-20T04:26:01;9.33;;;5.43;;
76837;SDS011;65797;47.352;8.164;2022-12-20T04:28:27;7.90;;;5.33;;
76837;SDS011;65797;47.352;8.164;2022-12-20T04:30:53;7.60;;;5.50;;
76837;SDS011;65797;47.352;8.164;2022-12-20T04:33:19;8.13;;;5.57;;
76837;SDS011;65797;47.352;8.164;2022-12-20T04:35:45;7.20;;;5.07;;
76837;SDS011;65797;47.352;8.164;2022-12-20T04:38:11;9.97;;;5.33;;
76837;SDS011;65797;47.352;8.164;2022-12-20T04:40:37;8.30;;;5.17;;
76837;SDS011;65797;47.352;8.164;2022-12-20T04:43:02;8.70;;;6.20;;
76837;SDS011;65797;47.352;8.164;2022-12-20T04:45:28;6.30;;;4.70;;
76837;SDS011;65797;47.352;8.164;2022-12-20T04:47:53;10.93;;;6.73;;
76837;SDS011;65797;47.352;8.164;2022-12-20T04:50:19;8.70;;;5.77;;
76837;SDS011;65797;47.352;8.164;2022-12-20T04:52:45;7.67;;;5.50;;
76837;SDS011;65797;47.352;8.164;2022-12-20T04:55:29;8.50;;;5.47;;
76837;SDS011;65797;47.352;8.164;2022-12-20T04:57:54;7.77;;;5.83;;
76837;SDS011;65797;47.352;8.164;2022-12-20T05:00:20;11.60;;;6.73;;
76837;SDS011;65797;47.352;8.164;2022-12-20T05:02:46;8.63;;;5.90;;
76837;SDS011;65797;47.352;8.164;2022-12-20T05:05:11;7.17;;;4.90;;
76837;SDS011;65797;47.352;8.164;2022-12-20T05:07:38;8.90;;;5.80;;
76837;SDS011;65797;47.352;8.164;2022-12-20T05:10:04;10.10;;;6.30;;
76837;SDS011;65797;47.352;8.164;2022-12-20T05:12:30;8.07;;;5.23;;
76837;SDS011;65797;47.352;8.164;2022-12-20T05:14:56;8.63;;;5.07;;
76837;SDS011;65797;47.352;8.164;2022-12-20T05:17:21;8.77;;;5.90;;
76837;SDS011;65797;47.352;8.164;2022-12-20T05:19:47;10.43;;;5.67;;
76837;SDS011;65797;47.352;8.164;2022-12-20T05:22:13;8.47;;;5.27;;
76837;SDS011;65797;47.352;8.164;2022-12-20T05:24:57;9.10;;;5.97;;
76837;SDS011;65797;47.352;8.164;2022-12-20T05:27:41;8.60;;;5.73;;
76837;SDS011;65797;47.352;8.164;2022-12-20T05:30:07;8.00;;;6.00;;
76837;SDS011;65797;47.352;8.164;2022-12-20T05:32:33;7.00;;;4.93;;
76837;SDS011;65797;47.352;8.164;2022-12-20T05:34:58;9.00;;;5.60;;
76837;SDS011;65797;47.352;8.164;2022-12-20T05:37:24;9.33;;;5.97;;
76837;SDS011;65797;47.352;8.164;2022-12-20T05:39:50;10.60;;;6.20;;
76837;SDS011;65797;47.352;8.164;2022-12-20T05:42:15;9.73;;;6.43;;
76837;SDS011;65797;47.352;8.164;2022-12-20T05:44:42;11.50;;;5.53;;
76837;SDS011;65797;47.352;8.164;2022-12-20T05:47:07;6.60;;;5.00;;
76837;SDS011;65797;47.352;8.164;2022-12-20T05:49:33;11.07;;;6.40;;
76837;SDS011;65797;47.352;8.164;2022-12-20T05:51:59;9.37;;;5.97;;
76837;SDS011;65797;47.352;8.164;2022-12-20T05:54:26;12.07;;;5.37;;
76837;SDS011;65797;47.352;8.164;2022-12-20T05:56:52;8.70;;;5.77;;
76837;SDS011;65797;47.352;8.164;2022-12-20T05:59:17;8.30;;;5.57;;
76837;SDS011;65797;47.352;8.164;2022-12-20T06:01:43;12.00;;;6.10;;
76837;SDS011;65797;47.352;8.164;2022-12-20T06:04:09;7.67;;;5.10;;
76837;SDS011;65797;47.352;8.164;2022-12-20T06:06:34;8.10;;;5.50;;
76837;SDS011;65797;47.352;8.164;2022-12-20T06:09:00;7.40;;;5.10;;
76837;SDS011;65797;47.352;8.164;2022-12-20T06:11:26;7.03;;;5.07;;
76837;SDS011;65797;47.352;8.164;2022-12-20T06:13:51;12.13;;;7.13;;
76837;SDS011;65797;47.352;8.164;2022-12-20T06:16:17;11.03;;;6.20;;
76837;SDS011;65797;47.352;8.164;2022-12-20T06:18:45;9.00;;;5.67;;
76837;SDS011;65797;47.352;8.164;2022-12-20T06:21:10;8.10;;;5.70;;
76837;SDS011;65797;47.352;8.164;2022-12-20T06:23:37;8.30;;;5.67;;
76837;SDS011;65797;47.352;8.164;2022-12-20T06:26:02;8.83;;;5.63;;
76837;SDS011;65797;47.352;8.164;2022-12-20T06:28:29;6.97;;;5.40;;
76837;SDS011;65797;47.352;8.164;2022-12-20T06:30:56;11.43;;;6.40;;
76837;SDS011;65797;47.352;8.164;2022-12-20T06:33:22;9.60;;;5.67;;
76837;SDS011;65797;47.352;8.164;2022-12-20T06:35:49;10.27;;;6.33;;
76837;SDS011;65797;47.352;8.164;2022-12-20T06:38:15;11.13;;;5.70;;
76837;SDS011;65797;47.352;8.164;2022-12-20T06:40:41;10.20;;;5.60;;
76837;SDS011;65797;47.352;8.164;2022-12-20T06:43:06;10.60;;;6.50;;
76837;SDS011;65797;47.352;8.164;2022-12-20T06:45:32;9.30;;;6.03;;
76837;SDS011;65797;47.352;8.164;2022-12-20T06:47:58;8.40;;;5.67;;
76837;SDS011;65797;47.352;8.164;2022-12-20T06:50:23;9.83;;;6.10;;
76837;SDS011;65797;47.352;8.164;2022-12-20T06:52:49;9.50;;;5.73;;
76837;SDS011;65797;47.352;8.164;2022-12-20T06:55:15;9.10;;;6.00;;
76837;SDS011;65797;47.352;8.164;2022-12-20T06:57:41;9.60;;;6.23;;
76837;SDS011;65797;47.352;8.164;2022-12-20T07:00:07;7.87;;;5.20;;
76837;SDS011;65797;47.352;8.164;2022-12-20T07:02:34;10.37;;;6.53;;
76837;SDS011;65797;47.352;8.164;2022-12-20T07:05:00;12.20;;;6.73;;
76837;SDS011;65797;47.352;8.164;2022-12-20T07:07:26;12.43;;;6.90;;
76837;SDS011;65797;47.352;8.164;2022-12-20T07:09:52;10.67;;;6.10;;
76837;SDS011;65797;47.352;8.164;2022-12-20T07:12:17;10.83;;;6.03;;
76837;SDS011;65797;47.352;8.164;2022-12-20T07:14:43;10.07;;;6.33;;
76837;SDS011;65797;47.352;8.164;2022-12-20T07:17:08;10.63;;;6.57;;
76837;SDS011;65797;47.352;8.164;2022-12-20T07:19:34;8.97;;;6.10;;
76837;SDS011;65797;47.352;8.164;2022-12-20T07:22:01;11.27;;;7.20;;
76837;SDS011;65797;47.352;8.164;2022-12-20T07:24:27;11.70;;;6.67;;
76837;SDS011;65797;47.352;8.164;2022-12-20T07:26:53;10.63;;;6.30;;
76837;SDS011;65797;47.352;8.164;2022-12-20T07:29:19;10.10;;;6.77;;
76837;SDS011;65797;47.352;8.164;2022-12-20T07:31:44;13.67;;;6.90;;
76837;SDS011;65797;47.352;8.164;2022-12-20T07:34:10;13.70;;;7.00;;
76837;SDS011;65797;47.352;8.164;2022-12-20T07:36:36;13.60;;;8.40;;
76837;SDS011;65797;47.352;8.164;2022-12-20T07:39:02;13.80;;;7.80;;
76837;SDS011;65797;47.352;8.164;2022-12-20T07:41:28;10.97;;;6.97;;
76837;SDS011;65797;47.352;8.164;2022-12-20T07:43:53;9.80;;;6.83;;
76837;SDS011;65797;47.352;8.164;2022-12-20T07:46:19;10.70;;;6.43;;
76837;SDS011;65797;47.352;8.164;2022-12-20T07:48:45;11.70;;;7.73;;
76837;SDS011;65797;47.352;8.164;2022-12-20T07:51:12;14.10;;;7.30;;
76837;SDS011;65797;47.352;8.164;2022-12-20T07:53:47;12.23;;;6.00;;
76837;SDS011;65797;47.352;8.164;2022-12-20T07:56:18;18.30;;;6.90;;
76837;SDS011;65797;47.352;8.164;2022-12-20T07:58:46;11.00;;;7.00;;
76837;SDS011;65797;47.352;8.164;2022-12-20T08:01:16;13.87;;;7.00;;
76837;SDS011;65797;47.352;8.164;2022-12-20T08:03:44;10.83;;;7.33;;
76837;SDS011;65797;47.352;8.164;2022-12-20T08:06:13;13.27;;;7.40;;
76837;SDS011;65797;47.352;8.164;2022-12-20T08:08:42;13.37;;;8.00;;
76837;SDS011;65797;47.352;8.164;2022-12-20T08:11:11;15.77;;;8.73;;
76837;SDS011;65797;47.352;8.164;2022-12-20T08:13:38;16.00;;;10.20;;
76837;SDS011;65797;47.352;8.164;2022-12-20T08:16:04;15.77;;;8.90;;
76837;SDS011;65797;47.352;8.164;2022-12-20T08:18:31;16.23;;;8.47;;
76837;SDS011;65797;47.352;8.164;2022-12-20T08:20:56;23.77;;;9.77;;
76837;SDS011;65797;47.352;8.164;2022-12-20T08:23:22;15.77;;;8.73;;
76837;SDS011;65797;47.352;8.164;2022-12-20T08:25:47;16.93;;;8.07;;
76837;SDS011;65797;47.352;8.164;2022-12-20T08:28:14;15.57;;;8.93;;
76837;SDS011;65797;47.352;8.164;2022-12-20T08:30:40;14.03;;;8.30;;
76837;SDS011;65797;47.352;8.164;2022-12-20T08:33:05;20.17;;;9.13;;
76837;SDS011;65797;47.352;8.164;2022-12-20T08:35:32;15.70;;;8.50;;
76837;SDS011;65797;47.352;8.164;2022-12-20T08:37:57;21.23;;;8.43;;
76837;SDS011;65797;47.352;8.164;2022-12-20T08:40:23;18.47;;;10.30;;
76837;SDS011;65797;47.352;8.164;2022-12-20T08:42:49;16.10;;;9.47;;
76837;SDS011;65797;47.352;8.164;2022-12-20T08:45:14;17.87;;;9.60;;
76837;SDS011;65797;47.352;8.164;2022-12-20T08:47:40;26.63;;;9.53;;
76837;SDS011;65797;47.352;8.164;2022-12-20T08:50:06;16.77;;;10.47;;
76837;SDS011;65797;47.352;8.164;2022-12-20T08:52:32;18.57;;;9.80;;
76837;SDS011;65797;47.352;8.164;2022-12-20T08:54:58;13.97;;;8.40;;
76837;SDS011;65797;47.352;8.164;2022-12-20T08:57:23;16.67;;;10.07;;
76837;SDS011;65797;47.352;8.164;2022-12-20T08:59:49;18.07;;;9.30;;
76837;SDS011;65797;47.352;8.164;2022-12-20T09:02:15;17.37;;;10.00;;
76837;SDS011;65797;47.352;8.164;2022-12-20T09:04:40;17.87;;;10.17;;
76837;SDS011;65797;47.352;8.164;2022-12-20T09:07:06;19.80;;;10.20;;
76837;SDS011;65797;47.352;8.164;2022-12-20T09:09:32;19.40;;;10.67;;
76837;SDS011;65797;47.352;8.164;2022-12-20T09:11:57;19.30;;;9.67;;
76837;SDS011;65797;47.352;8.164;2022-12-20T09:14:23;19.97;;;10.57;;
76837;SDS011;65797;47.352;8.164;2022-12-20T09:16:49;24.50;;;12.87;;
76837;SDS011;65797;47.352;8.164;2022-12-20T09:19:14;24.00;;;12.07;;
76837;SDS011;65797;47.352;8.164;2022-12-20T09:21:40;25.00;;;14.80;;
76837;SDS011;65797;47.352;8.164;2022-12-20T09:24:06;24.50;;;13.50;;
76837;SDS011;65797;47.352;8.164;2022-12-20T09:26:33;15.00;;;9.50;;
76837;SDS011;65797;47.352;8.164;2022-12-20T09:28:59;19.67;;;10.37;;
76837;SDS011;65797;47.352;8.164;2022-12-20T09:31:26;14.20;;;8.73;;
76837;SDS011;65797;47.352;8.164;2022-12-20T09:33:52;19.50;;;10.27;;
76837;SDS011;65797;47.352;8.164;2022-12-20T09:36:22;22.53;;;12.67;;
76837;SDS011;65797;47.352;8.164;2022-12-20T09:38:49;24.53;;;12.60;;
76837;SDS011;65797;47.352;8.164;2022-12-20T09:41:21;23.33;;;12.33;;
76837;SDS011;65797;47.352;8.164;2022-12-20T09:43:56;20.97;;;12.77;;
76837;SDS011;65797;47.352;8.164;2022-12-20T09:46:24;25.30;;;12.50;;
76837;SDS011;65797;47.352;8.164;2022-12-20T09:48:51;20.73;;;13.10;;
76837;SDS011;65797;47.352;8.164;2022-12-20T09:54:35;20.60;;;13.63;;
76837;SDS011;65797;47.352;8.164;2022-12-20T09:57:25;27.37;;;13.73;;
76837;SDS011;65797;47.352;8.164;2022-12-20T09:59:59;26.13;;;14.90;;
76837;SDS011;65797;47.352;8.164;2022-12-20T10:02:25;25.33;;;14.10;;
76837;SDS011;65797;47.352;8.164;2022-12-20T10:04:54;25.97;;;14.87;;
76837;SDS011;65797;47.352;8.164;2022-12-20T10:12:58;15.13;;;10.37;;
76837;SDS011;65797;47.352;8.164;2022-12-20T10:15:44;21.13;;;11.10;;
76837;SDS011;65797;47.352;8.164;2022-12-20T10:21:03;18.23;;;10.23;;
76837;SDS011;65797;47.352;8.164;2022-12-20T10:26:15;19.53;;;10.40;;
76837;SDS011;65797;47.352;8.164;2022-12-20T10:28:41;18.93;;;9.00;;
76837;SDS011;65797;47.352;8.164;2022-12-20T10:31:10;12.67;;;8.40;;
76837;SDS011;65797;47.352;8.164;2022-12-20T10:33:40;12.60;;;7.87;;
76837;SDS011;65797;47.352;8.164;2022-12-20T10:36:20;13.83;;;8.83;;
76837;SDS011;65797;47.352;8.164;2022-12-20T10:38:54;22.93;;;12.50;;
76837;SDS011;65797;47.352;8.164;2022-12-20T10:41:23;24.23;;;12.77;;
76837;SDS011;65797;47.352;8.164;2022-12-20T10:43:57;18.50;;;11.47;;
76837;SDS011;65797;47.352;8.164;2022-12-20T10:49:37;20.53;;;10.37;;
76837;SDS011;65797;47.352;8.164;2022-12-20T10:54:33;20.17;;;10.80;;
76837;SDS011;65797;47.352;8.164;2022-12-20T10:57:00;18.50;;;9.93;;
76837;SDS011;65797;47.352;8.164;2022-12-20T10:59:45;12.93;;;8.73;;
76837;SDS011;65797;47.352;8.164;2022-12-20T11:02:37;24.30;;;8.17;;
76837;SDS011;65797;47.352;8.164;2022-12-20T11:07:37;15.47;;;9.17;;
76837;SDS011;65797;47.352;8.164;2022-12-20T11:10:21;11.40;;;7.70;;
76837;SDS011;65797;47.352;8.164;2022-12-20T11:12:55;15.40;;;7.47;;
76837;SDS011;65797;47.352;8.164;2022-12-20T11:15:33;13.30;;;8.53;;
76837;SDS011;65797;47.352;8.164;2022-12-20T11:20:42;14.73;;;8.73;;
76837;SDS011;65797;47.352;8.164;2022-12-20T11:23:25;10.37;;;7.23;;
76837;SDS011;65797;47.352;8.164;2022-12-20T11:31:46;12.90;;;7.77;;
76837;SDS011;65797;47.352;8.164;2022-12-20T11:34:25;10.80;;;7.30;;
76837;SDS011;65797;47.352;8.164;2022-12-20T11:45:14;12.87;;;6.50;;
76837;SDS011;65797;47.352;8.164;2022-12-20T12:11:39;11.50;;;7.90;;
76837;SDS011;65797;47.352;8.164;2022-12-20T12:14:32;14.17;;;8.60;;
76837;SDS011;65797;47.352;8.164;2022-12-20T12:17:08;13.90;;;8.13;;
76837;SDS011;65797;47.352;8.164;2022-12-20T12:24:52;10.00;;;7.37;;
76837;SDS011;65797;47.352;8.164;2022-12-20T12:27:22;9.47;;;6.70;;
76837;SDS011;65797;47.352;8.164;2022-12-20T12:30:01;9.87;;;7.43;;
76837;SDS011;65797;47.352;8.164;2022-12-20T12:43:20;12.03;;;6.40;;
76837;SDS011;65797;47.352;8.164;2022-12-20T12:48:26;7.60;;;5.80;;
76837;SDS011;65797;47.352;8.164;2022-12-20T12:50:56;9.27;;;5.33;;
76837;SDS011;65797;47.352;8.164;2022-12-20T12:53:33;7.40;;;5.77;;
76837;SDS011;65797;47.352;8.164;2022-12-20T13:11:54;8.53;;;5.63;;
76837;SDS011;65797;47.352;8.164;2022-12-20T13:16:53;10.80;;;6.30;;
76837;SDS011;65797;47.352;8.164;2022-12-20T13:19:39;9.83;;;5.77;;
76837;SDS011;65797;47.352;8.164;2022-12-20T13:37:54;8.47;;;5.70;;
76837;SDS011;65797;47.352;8.164;2022-12-20T13:40:54;10.43;;;7.33;;
76837;SDS011;65797;47.352;8.164;2022-12-20T13:43:24;7.33;;;5.57;;
76837;SDS011;65797;47.352;8.164;2022-12-20T13:45:54;9.03;;;5.60;;
76837;SDS011;65797;47.352;8.164;2022-12-20T13:51:24;10.43;;;4.93;;
76837;SDS011;65797;47.352;8.164;2022-12-20T13:54:13;6.10;;;4.57;;
76837;SDS011;65797;47.352;8.164;2022-12-20T13:56:44;14.93;;;6.40;;
76837;SDS011;65797;47.352;8.164;2022-12-20T13:59:17;6.90;;;5.10;;
76837;SDS011;65797;47.352;8.164;2022-12-20T14:01:53;9.60;;;5.20;;
76837;SDS011;65797;47.352;8.164;2022-12-20T14:04:21;9.60;;;5.50;;
76837;SDS011;65797;47.352;8.164;2022-12-20T14:07:02;9.60;;;5.13;;
76837;SDS011;65797;47.352;8.164;2022-12-20T14:12:05;10.60;;;4.77;;
76837;SDS011;65797;47.352;8.164;2022-12-20T14:14:45;6.20;;;5.07;;
76837;SDS011;65797;47.352;8.164;2022-12-20T14:17:15;8.63;;;4.83;;
76837;SDS011;65797;47.352;8.164;2022-12-20T14:19:44;12.23;;;5.23;;
76837;SDS011;65797;47.352;8.164;2022-12-20T14:22:10;11.13;;;5.60;;
76837;SDS011;65797;47.352;8.164;2022-12-20T14:24:37;8.00;;;4.40;;
76837;SDS011;65797;47.352;8.164;2022-12-20T14:27:07;7.67;;;4.73;;
76837;SDS011;65797;47.352;8.164;2022-12-20T14:29:36;7.90;;;5.50;;
76837;SDS011;65797;47.352;8.164;2022-12-20T14:32:04;9.10;;;3.90;;
76837;SDS011;65797;47.352;8.164;2022-12-20T14:34:30;3.50;;;2.90;;
76837;SDS011;65797;47.352;8.164;2022-12-20T14:40:03;3.97;;;3.57;;
76837;SDS011;65797;47.352;8.164;2022-12-20T14:42:36;4.93;;;4.20;;
76837;SDS011;65797;47.352;8.164;2022-12-20T14:45:19;8.20;;;3.77;;
76837;SDS011;65797;47.352;8.164;2022-12-20T14:52:59;11.40;;;3.80;;
76837;SDS011;65797;47.352;8.164;2022-12-20T14:55:35;5.63;;;3.50;;
76837;SDS011;65797;47.352;8.164;2022-12-20T14:58:21;8.50;;;3.90;;
76837;SDS011;65797;47.352;8.164;2022-12-20T15:00:57;6.40;;;3.80;;
76837;SDS011;65797;47.352;8.164;2022-12-20T15:03:25;8.23;;;4.73;;
76837;SDS011;65797;47.352;8.164;2022-12-20T15:05:53;13.70;;;4.97;;
76837;SDS011;65797;47.352;8.164;2022-12-20T15:16:16;9.50;;;5.00;;
76837;SDS011;65797;47.352;8.164;2022-12-20T15:18:55;10.77;;;6.57;;
76837;SDS011;65797;47.352;8.164;2022-12-20T15:21:32;10.10;;;4.50;;
76837;SDS011;65797;47.352;8.164;2022-12-20T15:24:00;10.40;;;4.73;;
76837;SDS011;65797;47.352;8.164;2022-12-20T15:26:31;8.20;;;5.20;;
76837;SDS011;65797;47.352;8.164;2022-12-20T15:28:58;9.30;;;5.20;;
76837;SDS011;65797;47.352;8.164;2022-12-20T15:31:23;6.83;;;5.10;;
76837;SDS011;65797;47.352;8.164;2022-12-20T15:33:50;9.33;;;5.10;;
76837;SDS011;65797;47.352;8.164;2022-12-20T15:36:19;7.47;;;5.13;;
76837;SDS011;65797;47.352;8.164;2022-12-20T15:38:47;9.43;;;3.97;;
76837;SDS011;65797;47.352;8.164;2022-12-20T15:43:44;6.07;;;4.67;;
76837;SDS011;65797;47.352;8.164;2022-12-20T15:46:10;8.77;;;4.77;;
76837;SDS011;65797;47.352;8.164;2022-12-20T15:48:36;8.50;;;5.03;;
76837;SDS011;65797;47.352;8.164;2022-12-20T15:51:05;13.13;;;6.67;;
76837;SDS011;65797;47.352;8.164;2022-12-20T15:53:41;20.87;;;8.20;;
76837;SDS011;65797;47.352;8.164;2022-12-20T15:56:07;18.13;;;8.77;;
76837;SDS011;65797;47.352;8.164;2022-12-20T15:58:42;27.70;;;7.60;;
76837;SDS011;65797;47.352;8.164;2022-12-20T16:01:07;11.40;;;6.70;;
76837;SDS011;65797;47.352;8.164;2022-12-20T16:03:36;18.43;;;8.07;;
76837;SDS011;65797;47.352;8.164;2022-12-20T16:06:01;16.60;;;7.60;;
76837;SDS011;65797;47.352;8.164;2022-12-20T16:08:27;21.07;;;10.27;;
76837;SDS011;65797;47.352;8.164;2022-12-20T16:10:53;22.50;;;9.00;;
76837;SDS011;65797;47.352;8.164;2022-12-20T16:13:22;14.20;;;8.77;;
76837;SDS011;65797;47.352;8.164;2022-12-20T16:15:49;18.87;;;8.80;;
76837;SDS011;65797;47.352;8.164;2022-12-20T16:18:15;11.63;;;6.90;;
76837;SDS011;65797;47.352;8.164;2022-12-20T16:20:41;14.70;;;7.47;;
76837;SDS011;65797;47.352;8.164;2022-12-20T16:23:17;10.60;;;6.10;;
76837;SDS011;65797;47.352;8.164;2022-12-20T16:25:48;10.57;;;6.43;;
76837;SDS011;65797;47.352;8.164;2022-12-20T16:28:15;11.87;;;6.17;;
76837;SDS011;65797;47.352;8.164;2022-12-20T16:30:41;10.30;;;5.67;;
76837;SDS011;65797;47.352;8.164;2022-12-20T16:33:25;9.20;;;5.57;;
76837;SDS011;65797;47.352;8.164;2022-12-20T16:35:51;14.37;;;6.37;;
76837;SDS011;65797;47.352;8.164;2022-12-20T16:38:17;11.63;;;6.30;;
76837;SDS011;65797;47.352;8.164;2022-12-20T16:40:42;10.00;;;5.50;;
76837;SDS011;65797;47.352;8.164;2022-12-20T16:43:11;12.43;;;5.67;;
76837;SDS011;65797;47.352;8.164;2022-12-20T16:45:39;11.30;;;6.20;;
76837;SDS011;65797;47.352;8.164;2022-12-20T16:48:05;18.63;;;6.93;;
76837;SDS011;65797;47.352;8.164;2022-12-20T16:50:32;6.97;;;5.00;;
76837;SDS011;65797;47.352;8.164;2022-12-20T16:52:57;9.73;;;5.83;;
76837;SDS011;65797;47.352;8.164;2022-12-20T16:55:24;12.27;;;6.13;;
76837;SDS011;65797;47.352;8.164;2022-12-20T16:57:51;10.63;;;5.83;;
76837;SDS011;65797;47.352;8.164;2022-12-20T17:02:43;9.03;;;5.67;;
76837;SDS011;65797;47.352;8.164;2022-12-20T17:05:23;8.60;;;5.73;;
76837;SDS011;65797;47.352;8.164;2022-12-20T17:07:54;6.80;;;3.67;;
76837;SDS011;65797;47.352;8.164;2022-12-20T17:10:21;3.47;;;3.17;;
76837;SDS011;65797;47.352;8.164;2022-12-20T17:12:47;6.67;;;3.80;;
76837;SDS011;65797;47.352;8.164;2022-12-20T17:15:23;4.40;;;3.70;;
76837;SDS011;65797;47.352;8.164;2022-12-20T17:17:51;8.30;;;4.90;;